createdAt,value
2019-02-08T00:00:12.301Z,6.53
2019-02-08T00:02:58.421Z,6.52
2019-02-08T00:05:44.371Z,6.52
2019-02-08T00:08:32.816Z,6.55
2019-02-08T00:11:18.724Z,6.54
2019-02-08T00:14:04.908Z,6.58
2019-02-08T00:16:51.384Z,6.61
2019-02-08T00:20:17.539Z,6.58
2019-02-08T00:25:52.049Z,6.58
2019-02-08T00:28:38.145Z,6.55
2019-02-08T00:31:25.880Z,6.55
2019-02-08T00:34:12.073Z,6.58
2019-02-08T00:36:57.946Z,6.55
2019-02-08T00:39:43.792Z,6.59
2019-02-08T00:42:31.153Z,6.56
2019-02-08T00:45:17.630Z,6.58
2019-02-08T00:48:03.718Z,6.52
2019-02-08T00:50:49.810Z,6.47
2019-02-08T00:53:36.278Z,6.38
2019-02-08T00:56:22.106Z,6.39
2019-02-08T00:59:08.786Z,6.38
2019-02-08T01:01:55.050Z,6.38
2019-02-08T01:04:41.078Z,6.27
2019-02-08T01:07:27.625Z,6.30
2019-02-08T01:10:17.744Z,6.27
2019-02-08T01:13:04.450Z,6.23
2019-02-08T01:15:50.613Z,6.13
2019-02-08T01:18:36.826Z,6.12
2019-02-08T01:21:23.277Z,6.04
2019-02-08T01:24:10.962Z,6.01
2019-02-08T01:26:58.155Z,5.94
2019-02-08T01:29:44.433Z,5.90
2019-02-08T01:32:31.231Z,5.90
2019-02-08T01:35:17.601Z,5.86
2019-02-08T01:38:04.392Z,5.78
2019-02-08T01:40:50.583Z,5.86
2019-02-08T01:43:36.543Z,5.85
2019-02-08T01:46:22.495Z,5.86
2019-02-08T01:49:08.539Z,5.94
2019-02-08T01:51:54.627Z,6.01
2019-02-08T01:54:40.519Z,6.04
2019-02-08T01:57:26.701Z,6.07
2019-02-08T02:00:39.236Z,6.16
2019-02-08T02:03:25.471Z,6.20
2019-02-08T02:06:12.103Z,6.32
2019-02-08T02:08:57.869Z,6.29
2019-02-08T02:11:44.009Z,6.35
2019-02-08T02:14:30.332Z,6.37
2019-02-08T02:17:16.374Z,6.38
2019-02-08T02:20:04.493Z,6.36
2019-02-08T02:22:50.933Z,6.34
2019-02-08T02:25:37.030Z,6.37
2019-02-08T02:28:23.229Z,6.35
2019-02-08T02:31:09.167Z,6.33
2019-02-08T02:33:55.279Z,6.38
2019-02-08T02:36:41.041Z,6.38
2019-02-08T02:39:27.048Z,6.45
2019-02-08T02:42:13.032Z,6.39
2019-02-08T02:44:59.137Z,6.41
2019-02-08T02:47:44.967Z,6.40
2019-02-08T02:50:31.199Z,6.41
2019-02-08T02:53:16.991Z,6.35
2019-02-08T02:56:03.479Z,6.39
2019-02-08T02:58:49.812Z,6.34
2019-02-08T03:01:35.852Z,6.37
2019-02-08T03:04:22.101Z,6.36
2019-02-08T03:07:08.152Z,6.37
2019-02-08T03:09:54.099Z,6.34
2019-02-08T03:12:40.694Z,6.31
2019-02-08T03:15:26.799Z,6.30
2019-02-08T03:18:12.979Z,6.37
2019-02-08T03:20:59.208Z,6.27
2019-02-08T03:23:45.272Z,6.32
2019-02-08T03:26:31.274Z,6.33
2019-02-08T03:29:17.553Z,6.33
2019-02-08T03:32:03.722Z,6.35
2019-02-08T03:34:49.787Z,6.38
2019-02-08T03:37:35.988Z,6.39
2019-02-08T03:40:23.584Z,6.36
2019-02-08T03:43:10.116Z,6.40
2019-02-08T03:45:56.702Z,6.41
2019-02-08T03:48:42.476Z,6.44
2019-02-08T03:51:28.564Z,6.42
2019-02-08T03:54:20.991Z,6.41
2019-02-08T03:57:02.408Z,6.37
2019-02-08T03:59:48.425Z,6.31
2019-02-08T04:02:34.524Z,6.26
2019-02-08T04:05:20.900Z,6.25
2019-02-08T04:08:06.941Z,6.23
2019-02-08T04:10:53.284Z,6.27
2019-02-08T04:13:39.305Z,6.22
2019-02-08T04:16:25.137Z,6.22
2019-02-08T04:19:14.172Z,6.15
2019-02-08T04:21:59.945Z,6.15
2019-02-08T04:24:45.951Z,6.15
2019-02-08T04:27:31.932Z,6.13
2019-02-08T04:30:25.884Z,6.11
2019-02-08T04:33:11.815Z,6.12
2019-02-08T04:35:58.031Z,6.07
2019-02-08T04:38:44.058Z,6.07
2019-02-08T04:41:30.113Z,6.06
2019-02-08T04:44:16.088Z,6.03
2019-02-08T04:47:01.893Z,6.02
2019-02-08T04:49:47.867Z,6.04
2019-02-08T04:52:34.232Z,6.06
2019-02-08T04:55:20.587Z,6.08
2019-02-08T04:58:06.884Z,6.04
2019-02-08T05:00:53.026Z,6.03
2019-02-08T05:03:38.842Z,6.05
2019-02-08T05:06:24.828Z,6.00
2019-02-08T05:09:11.088Z,5.91
2019-02-08T05:11:59.890Z,5.93
2019-02-08T05:14:46.015Z,5.92
2019-02-08T05:17:32.045Z,5.89
2019-02-08T05:20:19.756Z,5.92
2019-02-08T05:23:05.536Z,5.95
2019-02-08T05:25:51.838Z,5.93
2019-02-08T05:28:37.923Z,5.92
2019-02-08T05:31:23.980Z,5.92
2019-02-08T05:34:10.037Z,5.92
2019-02-08T05:36:57.537Z,5.92
2019-02-08T05:39:43.512Z,5.93
2019-02-08T05:42:29.904Z,5.94
2019-02-08T05:45:16.561Z,5.93
2019-02-08T05:48:02.942Z,5.95
2019-02-08T05:50:48.848Z,5.95
2019-02-08T05:53:35.006Z,6.00
2019-02-08T05:56:20.799Z,6.00
2019-02-08T05:59:06.965Z,5.94
2019-02-08T06:01:52.999Z,5.85
2019-02-08T06:04:39.753Z,5.83
2019-02-08T06:07:25.858Z,5.75
2019-02-08T06:10:12.314Z,5.71
2019-02-08T06:12:58.390Z,5.66
2019-02-08T06:15:45.045Z,5.66
2019-02-08T06:18:31.389Z,5.60
2019-02-08T06:21:17.639Z,5.65
2019-02-08T06:24:04.454Z,5.65
2019-02-08T06:26:52.716Z,5.64
2019-02-08T06:29:38.894Z,5.67
2019-02-08T06:32:25.231Z,5.78
2019-02-08T06:35:11.821Z,5.79
2019-02-08T06:37:58.066Z,5.86
2019-02-08T06:40:46.026Z,5.93
2019-02-08T06:43:31.950Z,6.02
2019-02-08T06:46:18.046Z,6.02
2019-02-08T06:49:07.711Z,6.11
2019-02-08T06:51:54.181Z,6.13
2019-02-08T06:54:42.858Z,6.12
2019-02-08T06:57:34.390Z,6.17
2019-02-08T07:00:27.982Z,6.21
2019-02-08T07:10:27.486Z,6.32
2019-02-08T07:13:28.770Z,6.38
2019-02-08T07:16:34.701Z,6.38
2019-02-08T07:19:49.493Z,6.39
2019-02-08T07:22:57.472Z,6.45
2019-02-08T07:25:54.550Z,6.48
2019-02-08T07:28:58.745Z,6.53
2019-02-08T07:32:00.538Z,6.52
2019-02-08T07:35:05.686Z,6.55
2019-02-08T07:38:23.417Z,6.50
2019-02-08T07:41:33.600Z,6.52
2019-02-08T07:44:52.122Z,6.55
2019-02-08T07:47:49.749Z,6.58
2019-02-08T07:50:57.325Z,6.53
2019-02-08T07:54:11.685Z,6.64
2019-02-08T07:57:15.332Z,6.63
2019-02-08T08:00:20.528Z,6.59
2019-02-08T08:03:24.355Z,6.67
2019-02-08T08:06:28.487Z,6.67
2019-02-08T08:09:36.862Z,6.71
2019-02-08T08:12:33.547Z,6.80
2019-02-08T08:15:43.745Z,6.91
2019-02-08T08:18:52.505Z,6.94
2019-02-08T08:21:49.507Z,6.99
2019-02-08T08:24:53.531Z,6.99
2019-02-08T08:28:01.475Z,6.96
2019-02-08T08:31:01.989Z,6.98
2019-02-08T08:34:24.682Z,7.10
2019-02-08T08:37:24.767Z,7.47
2019-02-08T08:40:57.896Z,7.51
2019-02-08T08:44:16.201Z,7.76
2019-02-08T08:47:44.498Z,7.84
2019-02-08T08:50:56.474Z,7.80
2019-02-08T08:54:30.027Z,7.80
2019-02-08T08:57:44.239Z,7.81
2019-02-08T09:01:08.085Z,7.77
2019-02-08T09:04:31.280Z,7.89
2019-02-08T09:08:16.775Z,7.72
2019-02-08T09:11:37.879Z,7.59
2019-02-08T09:14:49.907Z,7.64
2019-02-08T09:18:13.819Z,7.79
2019-02-08T09:21:37.047Z,7.84
2019-02-08T09:24:43.318Z,7.87
2019-02-08T09:28:09.963Z,7.83
2019-02-08T09:31:41.669Z,7.69
2019-02-08T09:35:05.704Z,7.73
2019-02-08T09:38:26.202Z,7.71
2019-02-08T09:41:52.036Z,7.75
2019-02-08T09:45:16.301Z,7.78
2019-02-08T09:48:38.303Z,7.89
2019-02-08T09:51:52.697Z,7.80
2019-02-08T09:55:33.599Z,7.78
2019-02-08T09:58:49.507Z,7.91
2019-02-08T10:01:54.149Z,7.88
2019-02-08T10:05:26.334Z,7.95
2019-02-08T10:08:36.506Z,8.09
2019-02-08T10:12:02.977Z,8.00
2019-02-08T10:15:26.535Z,7.99
2019-02-08T10:19:03.201Z,8.07
2019-02-08T10:22:55.263Z,8.06
2019-02-08T10:26:30.547Z,8.02
2019-02-08T10:30:03.594Z,8.07
2019-02-08T10:33:32.419Z,8.14
2019-02-08T10:37:00.989Z,8.11
2019-02-08T10:40:28.807Z,8.11
2019-02-08T10:44:23.708Z,8.15
2019-02-08T10:47:54.720Z,8.28
2019-02-08T10:51:06.987Z,8.19
2019-02-08T10:54:36.756Z,8.21
2019-02-08T10:57:59.636Z,8.12
2019-02-08T11:01:28.135Z,8.21
2019-02-08T11:04:52.627Z,8.22
2019-02-08T11:08:33.415Z,8.42
2019-02-08T11:12:11.492Z,8.34
2019-02-08T11:15:50.753Z,8.47
2019-02-08T11:19:17.708Z,8.31
2019-02-08T11:22:03.648Z,8.37
2019-02-08T11:24:49.243Z,8.38
2019-02-08T11:27:34.629Z,8.40
2019-02-08T11:30:20.306Z,8.42
2019-02-08T11:33:08.799Z,8.41
2019-02-08T11:35:56.688Z,8.42
2019-02-08T11:38:42.433Z,8.52
2019-02-08T11:41:28.451Z,8.55
2019-02-08T11:44:14.488Z,8.63
2019-02-08T11:46:59.831Z,8.57
2019-02-08T11:49:45.518Z,8.50
2019-02-08T11:52:31.036Z,8.67
2019-02-08T11:55:16.568Z,8.71
2019-02-08T11:58:02.345Z,8.73
2019-02-08T12:00:50.945Z,8.62
2019-02-08T12:03:36.809Z,8.70
2019-02-08T12:06:24.106Z,8.77
2019-02-08T12:09:18.270Z,8.83
2019-02-08T12:12:06.497Z,8.89
2019-02-08T12:14:52.424Z,8.89
2019-02-08T12:17:37.857Z,9.01
2019-02-08T12:22:59.809Z,8.97
2019-02-08T12:25:48.877Z,9.01
2019-02-08T12:28:34.812Z,8.84
2019-02-08T12:31:21.949Z,8.95
2019-02-08T12:34:08.341Z,8.92
2019-02-08T12:36:55.317Z,8.99
2019-02-08T12:39:41.801Z,9.20
2019-02-08T12:42:27.506Z,9.11
2019-02-08T12:45:13.912Z,8.99
2019-02-08T12:48:00.028Z,8.97
2019-02-08T12:50:45.769Z,9.03
2019-02-08T12:53:31.529Z,9.01
2019-02-08T12:56:17.490Z,9.07
2019-02-08T12:59:03.749Z,9.18
2019-02-08T13:01:49.425Z,9.26
2019-02-08T13:04:35.968Z,9.27
2019-02-08T13:07:22.345Z,9.24
2019-02-08T13:10:10.945Z,9.36
2019-02-08T13:12:56.941Z,9.18
2019-02-08T13:15:42.557Z,9.20
2019-02-08T13:18:28.807Z,9.31
2019-02-08T13:21:14.533Z,9.23
2019-02-08T13:24:01.345Z,9.19
2019-02-08T13:26:52.766Z,9.36
2019-02-08T13:29:34.832Z,9.14
2019-02-08T13:32:20.357Z,9.22
2019-02-08T13:35:06.570Z,9.19
2019-02-08T13:37:52.237Z,9.12
2019-02-08T13:40:37.789Z,9.06
2019-02-08T13:43:23.828Z,9.03
2019-02-08T13:46:09.613Z,9.08
2019-02-08T13:48:55.108Z,9.05
2019-02-08T13:51:41.066Z,9.09
2019-02-08T13:54:29.865Z,9.04
2019-02-08T13:57:15.669Z,9.06
2019-02-08T14:00:02.160Z,9.16
2019-02-08T14:02:48.209Z,9.13
2019-02-08T14:05:34.562Z,9.06
2019-02-08T14:08:22.069Z,9.07
2019-02-08T14:11:07.765Z,9.04
2019-02-08T14:13:54.537Z,9.06
2019-02-08T14:16:40.852Z,9.17
2019-02-08T14:19:26.963Z,9.17
2019-02-08T14:22:12.486Z,9.11
2019-02-08T14:24:58.750Z,9.18
2019-02-08T14:27:44.833Z,9.15
2019-02-08T14:30:34.023Z,9.12
2019-02-08T14:33:21.286Z,9.11
2019-02-08T14:36:06.862Z,9.09
2019-02-08T14:38:52.529Z,9.06
2019-02-08T14:41:38.621Z,9.04
2019-02-08T14:44:24.221Z,9.01
2019-02-08T14:47:10.053Z,9.02
2019-02-08T14:49:57.437Z,9.01
2019-02-08T14:52:43.285Z,8.98
2019-02-08T14:55:28.943Z,8.96
2019-02-08T14:58:16.776Z,8.92
2019-02-08T15:01:03.053Z,8.98
2019-02-08T15:03:48.892Z,8.93
2019-02-08T15:06:35.353Z,8.88
2019-02-08T15:09:21.225Z,8.83
2019-02-08T15:12:06.865Z,8.84
2019-02-08T15:14:53.077Z,8.79
2019-02-08T15:17:39.607Z,8.75
2019-02-08T15:20:28.277Z,8.72
2019-02-08T15:23:15.261Z,8.66
2019-02-08T15:26:02.406Z,8.67
2019-02-08T15:28:47.777Z,8.63
2019-02-08T15:31:33.749Z,8.60
2019-02-08T15:34:19.402Z,8.61
2019-02-08T15:37:05.109Z,8.56
2019-02-08T15:39:51.071Z,8.56
2019-02-08T15:42:36.768Z,8.55
2019-02-08T15:45:22.409Z,8.55
2019-02-08T15:48:08.714Z,8.52
2019-02-08T15:50:54.700Z,8.52
2019-02-08T15:53:40.585Z,8.52
2019-02-08T15:56:27.054Z,8.50
2019-02-08T15:59:12.777Z,8.51
2019-02-08T16:01:58.949Z,8.51
2019-02-08T16:04:45.249Z,8.52
2019-02-08T16:07:31.222Z,8.48
2019-02-08T16:10:17.330Z,8.50
2019-02-08T16:13:03.895Z,8.52
2019-02-08T16:15:49.934Z,8.52
2019-02-08T16:18:35.946Z,8.51
2019-02-08T16:21:22.502Z,8.50
2019-02-08T16:24:08.027Z,8.52
2019-02-08T16:26:55.097Z,8.55
2019-02-08T16:29:46.048Z,8.54
2019-02-08T16:32:31.717Z,8.56
2019-02-08T16:35:19.853Z,8.56
2019-02-08T16:38:06.753Z,8.54
2019-02-08T16:40:52.806Z,8.57
2019-02-08T16:43:38.967Z,8.62
2019-02-08T16:46:25.055Z,8.61
2019-02-08T16:49:10.794Z,8.60
2019-02-08T16:51:56.532Z,8.59
2019-02-08T16:54:42.614Z,8.66
2019-02-08T16:57:28.406Z,8.67
2019-02-08T17:00:21.292Z,8.68
2019-02-08T17:03:09.605Z,8.67
2019-02-08T17:05:55.053Z,8.67
2019-02-08T17:08:41.036Z,8.67
2019-02-08T17:11:27.713Z,8.63
2019-02-08T17:14:13.795Z,8.64
2019-02-08T17:17:00.376Z,8.68
2019-02-08T17:19:46.484Z,8.72
2019-02-08T17:22:32.520Z,8.65
2019-02-08T17:25:20.167Z,8.67
2019-02-08T17:28:08.923Z,8.69
2019-02-08T17:30:56.290Z,8.63
2019-02-08T17:33:41.964Z,8.66
2019-02-08T17:36:27.914Z,8.66
2019-02-08T17:39:14.808Z,8.67
2019-02-08T17:42:00.774Z,8.70
2019-02-08T17:44:46.901Z,8.61
2019-02-08T17:47:33.529Z,8.61
2019-02-08T17:50:21.426Z,8.62
2019-02-08T17:53:07.533Z,8.59
2019-02-08T17:55:53.251Z,8.55
2019-02-08T17:58:38.830Z,8.54
2019-02-08T18:01:25.820Z,8.54
2019-02-08T18:04:11.813Z,8.54
2019-02-08T18:06:57.458Z,8.61
2019-02-08T18:09:43.722Z,8.58
2019-02-08T18:12:32.364Z,8.57
2019-02-08T18:15:19.194Z,8.56
2019-02-08T18:18:07.310Z,8.56
2019-02-08T18:20:55.565Z,8.53
2019-02-08T18:23:41.699Z,8.54
2019-02-08T18:26:27.526Z,8.54
2019-02-08T18:29:14.333Z,8.55
2019-02-08T18:32:00.332Z,8.51
2019-02-08T18:34:46.136Z,8.53
2019-02-08T18:37:31.566Z,8.59
2019-02-08T18:40:18.490Z,8.63
2019-02-08T18:43:04.494Z,8.64
2019-02-08T18:45:51.967Z,8.66
2019-02-08T18:48:39.235Z,8.63
2019-02-08T18:51:25.278Z,8.69
2019-02-08T18:54:16.440Z,8.69
2019-02-08T18:57:07.040Z,8.70
2019-02-08T18:59:53.307Z,8.71
2019-02-08T19:02:39.353Z,8.68
2019-02-08T19:05:25.494Z,8.70
2019-02-08T19:08:11.540Z,8.72
2019-02-08T19:10:57.551Z,8.73
2019-02-08T19:13:44.080Z,8.72
2019-02-08T19:16:30.240Z,8.72
2019-02-08T19:19:18.525Z,8.80
2019-02-08T19:22:04.558Z,8.79
2019-02-08T19:24:50.189Z,8.81
2019-02-08T19:27:35.981Z,8.82
2019-02-08T19:30:25.084Z,8.79
2019-02-08T19:33:10.732Z,8.81
2019-02-08T19:36:00.149Z,8.83
2019-02-08T19:38:48.657Z,8.82
2019-02-08T19:41:34.393Z,8.85
2019-02-08T19:44:21.873Z,8.82
2019-02-08T19:47:07.871Z,8.79
2019-02-08T19:49:53.893Z,8.80
2019-02-08T19:52:42.601Z,8.82
2019-02-08T19:55:29.318Z,8.85
2019-02-08T19:58:15.461Z,8.85
2019-02-08T20:01:01.504Z,8.93
2019-02-08T20:03:47.076Z,8.89
2019-02-08T20:06:32.773Z,8.88
2019-02-08T20:09:19.810Z,8.87
2019-02-08T20:12:05.703Z,8.87
2019-02-08T20:14:51.400Z,8.83
2019-02-08T20:17:37.450Z,8.84
2019-02-08T20:20:23.686Z,8.87
2019-02-08T20:23:09.227Z,8.82
2019-02-08T20:25:54.736Z,8.78
2019-02-08T20:28:42.743Z,8.67
2019-02-08T20:31:30.443Z,8.76
2019-02-08T20:34:16.361Z,8.78
2019-02-08T20:37:02.261Z,8.82
2019-02-08T20:39:49.807Z,8.81
2019-02-08T20:42:35.715Z,8.84
2019-02-08T20:45:23.307Z,8.78
2019-02-08T20:48:12.084Z,8.79
2019-02-08T20:50:58.137Z,8.76
2019-02-08T20:53:44.349Z,8.76
2019-02-08T20:56:32.333Z,8.77
2019-02-08T20:59:20.859Z,8.80
2019-02-08T21:02:06.671Z,8.85
2019-02-08T21:04:53.235Z,8.82
2019-02-08T21:07:39.762Z,8.77
2019-02-08T21:10:26.022Z,8.72
2019-02-08T21:13:12.335Z,8.69
2019-02-08T21:16:03.260Z,8.73
2019-02-08T21:18:49.034Z,8.73
2019-02-08T21:21:35.661Z,8.75
2019-02-08T21:24:21.271Z,8.74
2019-02-08T21:27:09.595Z,8.72
2019-02-08T21:29:55.684Z,8.73
2019-02-08T21:32:42.635Z,8.70
2019-02-08T21:35:28.699Z,8.74
2019-02-08T21:38:15.999Z,8.77
2019-02-08T21:41:01.831Z,8.73
2019-02-08T21:43:47.368Z,8.74
2019-02-08T21:46:33.276Z,8.75
2019-02-08T21:49:19.355Z,8.76
2019-02-08T21:52:05.158Z,8.74
2019-02-08T21:54:52.454Z,8.81
2019-02-08T21:57:38.374Z,8.76
2019-02-08T22:00:33.935Z,8.73
2019-02-08T23:29:55.365Z,8.96
2019-02-08T23:32:41.052Z,8.92
2019-02-08T23:35:27.253Z,8.89
2019-02-08T23:38:18.049Z,8.91
2019-02-08T23:41:07.139Z,8.87
2019-02-08T23:43:54.733Z,8.96
2019-02-08T23:46:42.007Z,8.85
2019-02-08T23:49:28.669Z,8.71
2019-02-08T23:52:14.369Z,8.79
2019-02-08T23:55:00.352Z,8.78
2019-02-08T23:57:45.925Z,8.75
